Virgil, Illinois
Current Conditions -  °F | °C
As of 7:35 AM on Wednesday 22 Oct 2014 (Local Time) from KDKB Reporting Station
Clear Clear  
Wind Chill: 28°   Ceiling: Unl
Heat Index: 33°   Visibility: 7mi
Dew Point: 32°   Wind: 5mph
Humidity: 97%   Direction: 30°NNE
Pressure: 30.34"   Gusts: NA
Location:  41.96°N, 88.54°W
Report Text: KDKB 221235Z AUTO 03004KT 7SM CLR 00/00 A3034 RMK AO2 T00031001
Loading
Personal Weather Stations






























Interactive Weather Map
Tropical Storm Tracking
New forecast layout! Learn more

10-Day Weather Forecast

Advertisements
Track Severe Weather on mobile